Time;durP1;ratioP1;P1;durP2;ratioP2;P2;SDS_P1;SDS_P2;PMS_P1;PMS_P2;Temp;Humidity;BMP_temperature;BMP_pressure;BME280_temperature;BME280_humidity;BME280_pressure;Samples;Min_cycle;Max_cycle;Signal;HPM_P1;HPM_P2
2021/08/18 00:01:20;;;;;;;30.33;22.33;;;18.10;99.90;;;;;;5061410;28;20453;-77
2021/08/18 00:03:46;;;;;;;32.95;23.00;;;18.10;99.90;;;;;;5049340;28;20422;-78
2021/08/18 00:06:13;;;;;;;31.13;21.38;;;18.00;99.90;;;;;;5069035;28;20570;-78
2021/08/18 00:08:41;;;;;;;28.05;19.15;;;18.00;99.90;;;;;;5071023;28;20117;-78
2021/08/18 00:11:07;;;;;;;23.00;17.55;;;18.10;99.90;;;;;;5069630;28;20098;-78
2021/08/18 00:13:33;;;;;;;24.52;17.27;;;18.00;99.90;;;;;;5062724;28;20028;-77
2021/08/18 00:15:59;;;;;;;22.20;17.42;;;18.00;99.90;;;;;;5046191;28;20112;-77
2021/08/18 00:18:25;;;;;;;21.60;16.98;;;18.00;99.90;;;;;;5065326;28;20484;-77
2021/08/18 00:20:50;;;;;;;21.40;15.60;;;18.00;99.90;;;;;;5054681;28;20111;-78
2021/08/18 00:23:16;;;;;;;19.88;15.27;;;17.90;99.90;;;;;;5072672;28;20031;-78
2021/08/18 00:25:42;;;;;;;26.20;16.45;;;17.90;99.90;;;;;;5067696;28;20062;-78
2021/08/18 00:28:08;;;;;;;21.48;16.45;;;18.00;99.90;;;;;;5066296;28;20146;-77
2021/08/18 00:30:34;;;;;;;18.13;14.93;;;18.00;99.90;;;;;;5067915;28;21302;-77
2021/08/18 00:32:59;;;;;;;18.38;13.82;;;18.00;99.90;;;;;;5072152;28;20080;-77
2021/08/18 00:35:25;;;;;;;19.08;14.40;;;18.00;99.90;;;;;;5068046;28;20477;-78
2021/08/18 00:37:51;;;;;;;20.27;14.65;;;18.00;99.90;;;;;;5061641;28;20063;-78
2021/08/18 00:40:17;;;;;;;21.02;15.63;;;17.90;99.90;;;;;;5060206;28;20824;-78
2021/08/18 00:42:45;;;;;;;22.23;15.55;;;18.00;99.90;;;;;;5063945;28;20036;-78
2021/08/18 00:45:12;;;;;;;21.92;14.57;;;18.00;99.90;;;;;;5066298;28;20393;-78
2021/08/18 00:47:49;;;;;;;20.15;15.20;;;18.00;99.90;;;;;;5060538;28;20064;-78
2021/08/18 00:50:19;;;;;;;22.65;15.45;;;18.10;99.90;;;;;;5066928;28;20029;-78
2021/08/18 00:52:46;;;;;;;22.00;15.20;;;18.10;99.90;;;;;;5062591;28;20020;-77
2021/08/18 00:55:17;;;;;;;19.52;15.75;;;18.10;99.90;;;;;;5064080;28;20037;-77
2021/08/18 00:57:43;;;;;;;23.15;16.27;;;18.10;99.90;;;;;;5052844;28;20035;-77
2021/08/18 01:00:11;;;;;;;21.45;16.60;;;18.10;99.90;;;;;;5065806;28;20036;-77
2021/08/18 01:02:38;;;;;;;21.10;16.77;;;18.10;99.90;;;;;;5063257;28;20024;-79
2021/08/18 01:05:14;;;;;;;21.00;15.82;;;18.10;99.90;;;;;;5064859;28;20029;-77
2021/08/18 01:07:40;;;;;;;22.73;16.70;;;18.10;99.90;;;;;;5066495;28;20047;-78
2021/08/18 01:10:11;;;;;;;22.70;17.20;;;18.10;99.90;;;;;;5073070;28;20028;-78
2021/08/18 01:12:38;;;;;;;22.73;17.23;;;18.10;99.90;;;;;;5066254;28;20044;-78
2021/08/18 01:15:07;;;;;;;23.08;17.20;;;18.10;99.90;;;;;;5061833;28;20024;-77
2021/08/18 01:17:37;;;;;;;25.92;19.55;;;18.20;99.90;;;;;;5067265;28;20048;-78
2021/08/18 01:20:04;;;;;;;27.33;18.95;;;18.10;99.90;;;;;;5071409;28;20104;-78
2021/08/18 01:22:29;;;;;;;28.10;19.90;;;18.10;99.90;;;;;;5070324;28;20089;-78
2021/08/18 01:24:55;;;;;;;27.33;20.15;;;18.10;99.90;;;;;;5067872;28;20033;-78
2021/08/18 01:27:21;;;;;;;30.77;19.88;;;18.10;99.90;;;;;;5069054;28;20464;-77
2021/08/18 01:29:47;;;;;;;27.92;20.58;;;18.20;99.90;;;;;;5066571;28;20111;-78
2021/08/18 01:32:13;;;;;;;30.13;21.42;;;18.10;99.90;;;;;;5065678;28;20060;-78
2021/08/18 01:34:39;;;;;;;32.88;21.38;;;18.20;99.90;;;;;;5064928;28;20151;-77
2021/08/18 01:37:05;;;;;;;29.73;20.70;;;18.20;99.90;;;;;;5060729;28;20025;-77
2021/08/18 01:39:31;;;;;;;31.48;22.40;;;18.20;99.90;;;;;;5066986;28;20091;-78
2021/08/18 01:41:58;;;;;;;48.38;25.63;;;18.20;99.90;;;;;;5059281;28;20036;-78
2021/08/18 01:44:24;;;;;;;32.67;21.58;;;18.30;99.90;;;;;;5066787;28;20029;-77
2021/08/18 01:46:49;;;;;;;33.03;22.17;;;18.30;99.90;;;;;;5063923;28;20146;-77
2021/08/18 01:49:15;;;;;;;30.60;21.25;;;18.30;99.90;;;;;;5061147;28;20115;-77
2021/08/18 01:51:41;;;;;;;32.88;22.38;;;18.30;99.90;;;;;;5069208;28;20032;-78
2021/08/18 01:54:07;;;;;;;35.72;25.63;;;18.20;99.90;;;;;;5069223;28;20495;-78
2021/08/18 01:56:33;;;;;;;44.47;26.70;;;18.10;99.90;;;;;;5069224;28;20056;-78
2021/08/18 01:58:59;;;;;;;40.35;25.77;;;18.20;99.90;;;;;;5062026;28;20060;-78
2021/08/18 02:01:24;;;;;;;43.22;28.20;;;18.20;99.90;;;;;;5068569;28;20021;-78
2021/08/18 02:03:50;;;;;;;44.53;28.67;;;18.20;99.90;;;;;;5064019;28;20104;-78
2021/08/18 02:06:18;;;;;;;45.85;28.85;;;18.20;99.90;;;;;;5070858;28;20104;-78
2021/08/18 02:08:44;;;;;;;38.78;27.27;;;18.20;99.90;;;;;;5067166;28;20068;-78
2021/08/18 02:11:10;;;;;;;44.88;29.15;;;18.20;99.90;;;;;;5064858;28;20397;-78
2021/08/18 02:13:36;;;;;;;45.90;31.15;;;18.20;99.90;;;;;;5070602;28;20035;-78
2021/08/18 02:16:04;;;;;;;48.95;33.25;;;18.20;99.90;;;;;;5067498;28;20019;-77
2021/08/18 02:18:30;;;;;;;46.53;29.98;;;18.30;99.90;;;;;;5060906;28;20035;-78
2021/08/18 02:20:56;;;;;;;39.70;27.70;;;18.30;99.90;;;;;;5069081;28;20029;-78
2021/08/18 02:23:22;;;;;;;42.30;28.67;;;18.30;99.90;;;;;;5062479;28;20113;-78
2021/08/18 02:25:49;;;;;;;57.40;31.52;;;18.20;99.90;;;;;;5067065;28;20139;-77
2021/08/18 02:28:15;;;;;;;48.25;31.50;;;18.20;99.90;;;;;;5068700;28;20040;-77
2021/08/18 02:30:41;;;;;;;50.42;31.08;;;18.20;99.90;;;;;;5065517;28;20020;-76
2021/08/18 02:33:08;;;;;;;44.35;29.58;;;18.20;99.90;;;;;;5062468;28;20119;-78
2021/08/18 02:35:35;;;;;;;55.10;31.48;;;18.30;99.90;;;;;;5067441;28;20023;-77
2021/08/18 02:38:02;;;;;;;49.65;30.67;;;18.30;99.90;;;;;;5061434;28;20380;-78
2021/08/18 02:40:28;;;;;;;45.13;28.67;;;18.30;99.90;;;;;;5060289;28;20025;-77
2021/08/18 02:42:56;;;;;;;50.30;32.95;;;18.30;99.90;;;;;;5062842;28;20107;-78
2021/08/18 02:45:23;;;;;;;47.58;30.27;;;18.30;99.90;;;;;;5046850;28;20373;-78
2021/08/18 02:47:49;;;;;;;46.25;30.20;;;18.30;99.90;;;;;;5060410;28;20039;-77
2021/08/18 02:50:19;;;;;;;41.50;29.20;;;18.30;99.90;;;;;;5061439;28;20037;-77
2021/08/18 02:52:45;;;;;;;48.65;31.92;;;18.30;99.90;;;;;;5067545;28;20050;-77
2021/08/18 02:55:11;;;;;;;44.88;29.38;;;18.30;99.90;;;;;;5073953;28;20028;-78
2021/08/18 02:57:37;;;;;;;48.05;31.10;;;18.30;99.90;;;;;;5063469;28;20028;-80
2021/08/18 03:00:06;;;;;;;57.72;33.47;;;18.30;99.90;;;;;;5065510;28;20020;-79
2021/08/18 03:02:32;;;;;;;55.03;34.85;;;18.30;99.90;;;;;;5058771;28;20029;-78
2021/08/18 03:04:58;;;;;;;61.33;36.15;;;18.30;99.90;;;;;;5068356;28;20025;-79
2021/08/18 03:07:24;;;;;;;66.95;37.53;;;18.30;99.90;;;;;;5063582;28;20028;-78
2021/08/18 03:09:50;;;;;;;68.07;38.28;;;18.40;99.90;;;;;;5063598;28;20020;-77
2021/08/18 03:12:16;;;;;;;70.68;39.13;;;18.40;99.90;;;;;;5066013;28;20024;-78
2021/08/18 03:14:44;;;;;;;71.45;41.00;;;18.40;99.90;;;;;;5071259;28;20032;-78
2021/08/18 03:17:10;;;;;;;81.90;42.88;;;18.40;99.90;;;;;;5062418;28;20032;-78
2021/08/18 03:19:36;;;;;;;70.80;42.17;;;18.40;99.90;;;;;;5064669;28;20036;-78
2021/08/18 03:22:01;;;;;;;71.03;40.45;;;18.30;99.90;;;;;;5070952;28;20075;-79
2021/08/18 03:24:27;;;;;;;73.03;40.28;;;18.40;99.90;;;;;;5066910;28;20500;-79
2021/08/18 03:26:54;;;;;;;99.50;46.05;;;18.40;99.90;;;;;;5070051;28;20028;-79
2021/08/18 03:29:20;;;;;;;81.00;42.15;;;18.40;99.90;;;;;;5069929;28;20488;-79
2021/08/18 03:31:46;;;;;;;72.10;40.22;;;18.40;99.90;;;;;;5066879;28;20036;-79
2021/08/18 03:34:11;;;;;;;73.63;41.10;;;18.30;99.90;;;;;;5064012;28;20032;-78
2021/08/18 03:36:37;;;;;;;66.20;40.22;;;18.30;99.90;;;;;;5063044;28;20025;-79
2021/08/18 03:39:03;;;;;;;66.45;41.50;;;18.30;99.90;;;;;;5067474;28;20059;-79
2021/08/18 03:41:29;;;;;;;55.15;36.60;;;18.30;99.90;;;;;;5059554;28;20113;-79
2021/08/18 03:43:54;;;;;;;72.40;43.55;;;18.30;99.90;;;;;;5064227;28;20021;-79
2021/08/18 03:46:20;;;;;;;73.45;39.88;;;18.40;99.90;;;;;;5067844;28;20029;-79
2021/08/18 03:48:46;;;;;;;62.25;37.90;;;18.40;99.90;;;;;;5065948;28;20107;-78
2021/08/18 03:51:11;;;;;;;88.45;43.92;;;18.40;99.90;;;;;;5063906;28;20058;-78
2021/08/18 03:53:37;;;;;;;54.22;34.28;;;18.40;99.90;;;;;;5066775;28;20032;-78
2021/08/18 03:56:03;;;;;;;69.20;38.22;;;18.40;99.90;;;;;;5072806;28;20024;-78
2021/08/18 03:58:29;;;;;;;69.13;40.92;;;18.40;99.90;;;;;;5065290;28;20044;-78
2021/08/18 04:00:54;;;;;;;78.65;41.72;;;18.40;99.90;;;;;;5049795;28;20055;-78
2021/08/18 04:03:20;;;;;;;72.20;40.00;;;18.40;99.90;;;;;;5048407;28;20028;-78
2021/08/18 04:05:46;;;;;;;71.78;41.22;;;18.40;99.90;;;;;;5062096;28;20492;-78
2021/08/18 04:08:11;;;;;;;89.22;43.97;;;18.30;99.90;;;;;;5062097;28;20076;-78
2021/08/18 04:10:37;;;;;;;76.20;39.95;;;18.40;99.90;;;;;;5065448;28;20043;-78
2021/08/18 04:13:04;;;;;;;92.68;44.50;;;18.30;99.90;;;;;;5071441;28;20029;-78
2021/08/18 04:15:38;;;;;;;68.88;39.20;;;18.30;99.90;;;;;;5067466;28;20029;-78
2021/08/18 04:18:04;;;;;;;66.78;39.33;;;18.30;99.90;;;;;;5069319;28;20143;-77
2021/08/18 04:20:30;;;;;;;97.68;45.65;;;18.30;99.90;;;;;;5064580;28;20036;-78
2021/08/18 04:22:57;;;;;;;80.22;42.88;;;18.30;99.90;;;;;;5073648;28;20016;-78
2021/08/18 04:25:23;;;;;;;81.65;42.67;;;18.30;99.90;;;;;;5062337;28;20028;-78
2021/08/18 04:27:49;;;;;;;87.15;46.38;;;18.40;99.90;;;;;;5070600;28;20570;-78
2021/08/18 04:30:16;;;;;;;99.55;50.85;;;18.30;99.90;;;;;;5068193;28;20027;-77
2021/08/18 04:32:43;;;;;;;94.40;46.92;;;18.30;99.90;;;;;;5067453;28;20020;-77
2021/08/18 04:35:10;;;;;;;84.85;45.00;;;18.40;99.90;;;;;;5070630;28;20058;-77
2021/08/18 04:37:36;;;;;;;92.05;46.13;;;18.40;99.90;;;;;;5058625;28;20469;-78
2021/08/18 04:40:04;;;;;;;87.93;44.25;;;18.30;99.90;;;;;;5064483;28;20437;-78
2021/08/18 04:42:34;;;;;;;83.75;44.83;;;18.40;99.90;;;;;;5070313;28;20030;-77
2021/08/18 04:45:00;;;;;;;72.20;39.85;;;18.30;99.90;;;;;;5070745;28;20017;-78
2021/08/18 04:47:25;;;;;;;99.40;47.15;;;18.30;99.90;;;;;;5055502;28;20059;-78
2021/08/18 04:49:51;;;;;;;82.38;42.75;;;18.30;99.90;;;;;;5066147;28;20024;-77
2021/08/18 04:52:17;;;;;;;91.60;47.13;;;18.40;99.90;;;;;;5063400;28;20029;-78
2021/08/18 04:54:42;;;;;;;79.10;44.30;;;18.40;99.90;;;;;;5062119;28;20036;-78
2021/08/18 04:57:08;;;;;;;78.32;42.15;;;18.40;99.90;;;;;;5063029;28;20021;-78
2021/08/18 04:59:34;;;;;;;88.07;45.85;;;18.40;99.90;;;;;;5068693;28;20021;-78
2021/08/18 05:01:59;;;;;;;73.35;42.28;;;18.40;99.90;;;;;;5067623;28;20028;-78
2021/08/18 05:04:25;;;;;;;69.95;37.90;;;18.40;99.90;;;;;;5062910;28;20048;-77
2021/08/18 05:06:51;;;;;;;76.97;40.50;;;18.40;99.90;;;;;;5052168;28;20032;-77
2021/08/18 05:09:16;;;;;;;78.18;40.45;;;18.40;99.90;;;;;;5064511;28;20032;-78
2021/08/18 05:11:42;;;;;;;81.72;42.60;;;18.40;99.90;;;;;;5063613;28;20104;-78
2021/08/18 05:14:08;;;;;;;85.03;41.95;;;18.40;99.90;;;;;;5073932;28;20108;-78
2021/08/18 05:16:33;;;;;;;75.15;39.03;;;18.40;99.90;;;;;;5068110;28;20031;-78
2021/08/18 05:18:59;;;;;;;59.90;34.95;;;18.40;99.90;;;;;;5065964;28;20028;-78
2021/08/18 05:21:25;;;;;;;60.90;35.42;;;18.40;99.90;;;;;;5063751;28;20064;-79
2021/08/18 05:23:50;;;;;;;63.30;35.50;;;18.50;99.90;;;;;;5048773;28;20024;-79
2021/08/18 05:26:16;;;;;;;62.22;36.42;;;18.50;99.90;;;;;;5065666;28;20108;-79
2021/08/18 05:28:42;;;;;;;70.25;37.75;;;18.50;99.90;;;;;;5054705;28;20085;-79
2021/08/18 05:31:07;;;;;;;60.75;34.42;;;18.50;99.90;;;;;;5069836;28;20020;-79
2021/08/18 05:33:33;;;;;;;75.88;40.00;;;18.60;99.90;;;;;;5065147;28;20043;-78
2021/08/18 05:36:00;;;;;;;72.15;40.20;;;18.60;99.90;;;;;;5068832;28;20028;-78
2021/08/18 05:38:26;;;;;;;81.28;42.13;;;18.50;99.90;;;;;;5056847;28;20029;-78
2021/08/18 05:40:51;;;;;;;75.03;39.40;;;18.60;99.90;;;;;;5068229;28;20078;-78
2021/08/18 05:43:17;;;;;;;70.60;38.13;;;18.60;99.90;;;;;;5071527;28;20028;-79
2021/08/18 05:45:43;;;;;;;73.85;37.05;;;18.50;99.90;;;;;;5061345;28;20025;-79
2021/08/18 05:48:08;;;;;;;54.53;32.55;;;18.60;99.90;;;;;;5062041;28;20029;-78
2021/08/18 05:50:34;;;;;;;62.55;35.33;;;18.50;99.90;;;;;;5066422;28;20036;-78
2021/08/18 05:53:00;;;;;;;59.38;34.55;;;18.60;99.90;;;;;;5062869;28;20108;-78
2021/08/18 05:55:25;;;;;;;59.60;34.40;;;18.50;99.90;;;;;;5050299;28;20039;-78
2021/08/18 05:57:51;;;;;;;64.22;33.88;;;18.60;99.90;;;;;;5066493;28;20020;-78
2021/08/18 06:00:17;;;;;;;55.00;32.72;;;18.60;99.90;;;;;;5068655;28;20390;-76
2021/08/18 06:02:43;;;;;;;58.30;32.28;;;18.70;99.90;;;;;;5065844;28;20606;-78
2021/08/18 06:05:09;;;;;;;64.03;35.78;;;18.70;99.90;;;;;;5061943;28;20041;-78
2021/08/18 06:07:35;;;;;;;56.47;32.33;;;18.70;99.90;;;;;;5045410;28;20531;-78
2021/08/18 06:10:00;;;;;;;44.90;28.25;;;18.70;99.90;;;;;;5069607;28;20037;-76
2021/08/18 06:12:26;;;;;;;57.08;31.90;;;18.70;99.90;;;;;;5063939;28;20183;-77
2021/08/18 06:14:52;;;;;;;42.67;26.20;;;18.70;99.90;;;;;;5063357;28;20032;-78
2021/08/18 06:17:17;;;;;;;45.30;25.50;;;18.70;99.90;;;;;;5063980;28;20387;-78
2021/08/18 06:19:43;;;;;;;40.72;26.02;;;18.70;99.90;;;;;;5064015;28;20036;-78
2021/08/18 06:22:09;;;;;;;39.38;23.88;;;18.70;99.90;;;;;;5063496;28;20129;-78
2021/08/18 06:24:41;;;;;;;40.38;24.73;;;18.70;99.90;;;;;;5068256;28;20025;-78
2021/08/18 06:27:09;;;;;;;43.03;25.75;;;18.70;99.90;;;;;;5071007;28;20044;-78
2021/08/18 06:29:35;;;;;;;34.63;22.63;;;18.80;99.90;;;;;;5066493;28;20055;-77
2021/08/18 06:32:02;;;;;;;32.70;21.73;;;18.70;99.90;;;;;;5071174;28;20013;-78
2021/08/18 06:34:28;;;;;;;38.95;23.17;;;18.80;99.90;;;;;;5063487;28;20036;-78
2021/08/18 06:36:53;;;;;;;38.60;23.45;;;18.70;99.90;;;;;;5070575;28;20021;-79
2021/08/18 06:39:19;;;;;;;31.33;20.98;;;18.80;99.90;;;;;;5067709;28;20123;-79
2021/08/18 06:41:45;;;;;;;32.88;19.35;;;18.80;99.90;;;;;;5055053;28;20032;-79
2021/08/18 06:44:10;;;;;;;27.90;18.02;;;18.80;99.90;;;;;;5073064;28;20032;-79
2021/08/18 06:46:36;;;;;;;23.45;16.35;;;18.80;99.90;;;;;;5051193;28;20031;-79
2021/08/18 06:49:02;;;;;;;21.58;14.55;;;18.80;99.90;;;;;;5065667;28;20040;-78
2021/08/18 06:51:29;;;;;;;21.27;14.73;;;18.80;99.90;;;;;;5069122;28;20055;-78
2021/08/18 06:53:54;;;;;;;18.60;12.98;;;18.90;99.90;;;;;;5069396;28;20162;-77
2021/08/18 06:56:20;;;;;;;17.42;12.68;;;18.80;99.90;;;;;;5066322;28;20048;-78
2021/08/18 06:58:46;;;;;;;21.73;14.48;;;18.90;99.90;;;;;;5073856;28;20528;-77
2021/08/18 07:01:11;;;;;;;22.00;15.30;;;18.90;99.90;;;;;;5060710;28;20094;-79
2021/08/18 07:03:37;;;;;;;22.75;15.88;;;18.80;99.90;;;;;;5068235;28;20086;-80
2021/08/18 07:06:02;;;;;;;28.40;16.85;;;18.90;99.90;;;;;;5068776;28;20428;-80
2021/08/18 07:08:28;;;;;;;29.85;19.08;;;18.90;99.90;;;;;;5069859;28;20074;-80
2021/08/18 07:10:54;;;;;;;31.25;20.30;;;18.90;99.90;;;;;;5070676;28;20380;-79
2021/08/18 07:13:20;;;;;;;30.27;20.88;;;18.90;99.90;;;;;;5074625;28;20082;-78
2021/08/18 07:15:46;;;;;;;28.80;20.55;;;18.90;99.90;;;;;;5072983;28;20239;-79
2021/08/18 07:18:12;;;;;;;33.30;21.65;;;18.80;99.90;;;;;;5073387;28;20732;-78
2021/08/18 07:20:37;;;;;;;36.05;23.85;;;18.70;99.90;;;;;;5071792;28;20656;-78
2021/08/18 07:23:04;;;;;;;41.85;27.05;;;18.70;99.90;;;;;;5065909;28;20028;-79
2021/08/18 07:25:29;;;;;;;45.28;27.58;;;18.60;99.90;;;;;;5072450;28;20033;-79
2021/08/18 07:27:55;;;;;;;36.20;23.40;;;18.60;99.90;;;;;;5066256;28;20050;-79
2021/08/18 07:30:21;;;;;;;26.42;17.50;;;18.60;99.90;;;;;;5072669;28;20017;-79
2021/08/18 07:32:47;;;;;;;26.08;17.25;;;18.60;99.90;;;;;;5075594;28;20070;-79
2021/08/18 07:35:14;;;;;;;20.58;14.50;;;18.60;99.90;;;;;;5075280;28;20354;-79
2021/08/18 07:37:39;;;;;;;19.88;14.50;;;18.60;99.90;;;;;;5068840;28;20036;-79
2021/08/18 07:40:06;;;;;;;17.33;12.90;;;18.70;99.90;;;;;;5068693;28;20027;-79
2021/08/18 07:42:32;;;;;;;13.77;10.85;;;18.70;99.90;;;;;;5074494;28;20484;-78
2021/08/18 07:44:57;;;;;;;10.80;9.43;;;18.70;99.90;;;;;;5068476;28;20071;-80
2021/08/18 07:47:23;;;;;;;9.85;7.82;;;18.70;99.90;;;;;;5071385;28;20070;-80
2021/08/18 07:49:50;;;;;;;7.20;6.50;;;18.60;99.90;;;;;;5072003;28;20677;-80
2021/08/18 07:52:16;;;;;;;9.02;6.45;;;18.60;99.90;;;;;;5069786;28;20021;-80
2021/08/18 07:54:41;;;;;;;7.10;6.40;;;18.70;99.90;;;;;;5071198;28;20099;-80
2021/08/18 07:57:07;;;;;;;7.40;5.85;;;18.70;99.90;;;;;;5069735;28;20143;-80
2021/08/18 07:59:33;;;;;;;6.85;5.63;;;18.70;99.90;;;;;;5049178;28;20500;-80
2021/08/18 08:01:59;;;;;;;5.80;5.22;;;18.70;99.90;;;;;;5064321;28;20029;-79
2021/08/18 08:04:26;;;;;;;4.47;4.07;;;18.70;99.90;;;;;;5069356;28;20035;-79
2021/08/18 08:06:52;;;;;;;5.25;4.75;;;18.80;99.90;;;;;;5069622;28;20676;-79
2021/08/18 08:09:18;;;;;;;5.35;4.85;;;18.80;99.90;;;;;;5068084;28;20052;-78
2021/08/18 08:11:45;;;;;;;4.82;4.43;;;18.80;99.90;;;;;;5063386;28;20013;-79
2021/08/18 08:14:11;;;;;;;7.78;5.57;;;18.80;99.90;;;;;;5065193;28;20476;-79
2021/08/18 08:16:37;;;;;;;6.75;6.05;;;18.80;99.90;;;;;;5065257;28;20469;-79
2021/08/18 08:19:04;;;;;;;6.10;5.40;;;18.80;99.90;;;;;;5063658;28;20036;-78
2021/08/18 08:21:30;;;;;;;9.68;8.40;;;18.70;99.90;;;;;;5068269;28;20029;-79
2021/08/18 08:23:56;;;;;;;7.85;7.10;;;18.80;99.90;;;;;;5071368;28;20280;-78
2021/08/18 08:26:22;;;;;;;7.15;5.60;;;18.80;99.90;;;;;;5068876;28;21231;-78
2021/08/18 08:28:47;;;;;;;9.15;7.07;;;18.80;99.90;;;;;;5065909;28;20036;-78
2021/08/18 08:31:13;;;;;;;9.55;6.85;;;18.70;99.90;;;;;;5066261;28;20126;-79
2021/08/18 08:33:39;;;;;;;8.38;6.82;;;18.80;99.90;;;;;;5069711;28;20086;-78
2021/08/18 08:36:04;;;;;;;9.70;7.78;;;18.90;99.90;;;;;;5067005;28;20028;-79
2021/08/18 08:38:30;;;;;;;10.82;7.85;;;18.80;99.90;;;;;;5065406;28;20033;-79
2021/08/18 08:40:55;;;;;;;8.20;7.22;;;18.80;99.90;;;;;;5045812;28;21094;-78
2021/08/18 08:43:24;;;;;;;11.68;7.95;;;18.90;99.90;;;;;;5063105;28;20034;-79
2021/08/18 08:45:50;;;;;;;14.52;8.57;;;18.80;99.90;;;;;;5065517;28;20025;-79
2021/08/18 08:48:18;;;;;;;15.65;9.18;;;18.90;99.90;;;;;;5070721;28;20033;-79
2021/08/18 08:50:46;;;;;;;10.75;8.45;;;19.00;99.90;;;;;;5061859;28;20492;-78
2021/08/18 08:53:12;;;;;;;11.25;8.35;;;19.00;99.90;;;;;;5045611;28;20028;-79
2021/08/18 08:55:38;;;;;;;11.45;8.95;;;18.90;99.90;;;;;;5069836;28;20036;-78
2021/08/18 08:58:04;;;;;;;9.80;8.27;;;19.00;99.90;;;;;;5068527;28;20028;-78
2021/08/18 09:00:29;;;;;;;18.10;10.45;;;19.00;99.90;;;;;;5071277;28;20048;-78
2021/08/18 09:03:08;;;;;;;13.45;10.20;;;19.10;99.90;;;;;;5067570;28;20498;-78
2021/08/18 09:05:34;;;;;;;18.05;12.32;;;19.20;99.90;;;;;;5060598;28;20121;-78
2021/08/18 09:08:00;;;;;;;15.93;12.10;;;19.20;99.90;;;;;;5068976;28;20035;-77
2021/08/18 09:10:27;;;;;;;16.33;11.10;;;19.10;99.90;;;;;;5065152;28;20028;-78
2021/08/18 09:13:12;;;;;;;18.75;12.57;;;19.10;99.90;;;;;;5067955;28;20048;-78
2021/08/18 09:15:38;;;;;;;22.67;15.00;;;19.30;99.90;;;;;;5065686;28;20068;-78
2021/08/18 09:18:03;;;;;;;22.98;15.00;;;19.40;99.90;;;;;;5063424;28;20498;-78
2021/08/18 09:20:29;;;;;;;30.25;17.55;;;19.50;99.90;;;;;;5070218;28;20056;-78
2021/08/18 09:22:57;;;;;;;22.85;16.35;;;19.50;99.90;;;;;;5070182;28;20479;-78
2021/08/18 09:25:31;;;;;;;36.45;24.95;;;19.60;99.90;;;;;;5070073;28;20536;-78
2021/08/18 09:27:59;;;;;;;38.65;25.80;;;19.60;99.90;;;;;;5052092;28;20035;-78
2021/08/18 09:30:28;;;;;;;40.35;29.40;;;19.60;99.90;;;;;;5069613;28;20029;-79
2021/08/18 09:32:57;;;;;;;36.72;26.73;;;19.70;99.90;;;;;;5068780;28;20115;-79
2021/08/18 09:35:25;;;;;;;34.72;27.05;;;19.60;99.90;;;;;;5060617;28;20032;-78
2021/08/18 09:38:04;;;;;;;35.60;26.27;;;19.70;99.90;;;;;;5050916;28;20075;-78
2021/08/18 09:40:35;;;;;;;37.85;27.38;;;19.60;99.90;;;;;;5066915;28;20033;-79
2021/08/18 09:43:17;;;;;;;33.95;26.77;;;19.60;99.90;;;;;;5064807;28;20028;-79
2021/08/18 09:45:54;;;;;;;34.47;26.02;;;19.70;99.90;;;;;;5069817;28;20062;-78
2021/08/18 09:48:21;;;;;;;35.08;26.60;;;19.90;99.90;;;;;;5060371;28;20066;-78
2021/08/18 09:50:52;;;;;;;40.55;27.48;;;19.90;99.90;;;;;;5065090;28;20012;-78
2021/08/18 09:53:19;;;;;;;31.10;26.27;;;19.90;99.90;;;;;;5072754;28;20040;-77
2021/08/18 09:55:51;;;;;;;37.10;26.88;;;20.00;99.90;;;;;;5061391;28;20021;-77
2021/08/18 09:58:24;;;;;;;35.40;25.73;;;20.00;99.90;;;;;;5063257;28;20120;-79
2021/08/18 10:00:51;;;;;;;30.52;24.52;;;20.10;99.90;;;;;;5060996;28;20512;-79
2021/08/18 10:03:16;;;;;;;25.92;21.48;;;20.10;99.90;;;;;;5066863;28;20465;-79
2021/08/18 10:05:42;;;;;;;30.60;21.98;;;20.10;99.90;;;;;;5066431;28;20024;-79
2021/08/18 10:08:09;;;;;;;28.48;22.85;;;20.10;99.90;;;;;;5068648;28;20404;-79
2021/08/18 10:10:39;;;;;;;29.63;22.00;;;20.10;99.90;;;;;;5072089;28;20024;-79
2021/08/18 10:13:09;;;;;;;26.63;22.13;;;20.10;99.90;;;;;;5073901;28;20017;-78
2021/08/18 10:15:37;;;;;;;25.05;21.50;;;20.20;99.90;;;;;;5069380;28;20032;-79
2021/08/18 10:18:04;;;;;;;27.80;20.30;;;20.20;99.90;;;;;;5066635;28;20905;-79
2021/08/18 10:20:30;;;;;;;22.30;19.75;;;20.20;99.90;;;;;;5072507;28;20348;-79
2021/08/18 10:23:07;;;;;;;21.98;17.85;;;20.20;99.90;;;;;;5070478;28;20473;-79
2021/08/18 10:25:49;;;;;;;23.05;18.92;;;20.30;99.90;;;;;;5065778;28;20032;-79
2021/08/18 10:28:18;;;;;;;20.92;17.52;;;20.40;99.90;;;;;;5069670;28;20025;-79
2021/08/18 10:30:50;;;;;;;18.27;15.07;;;20.40;99.90;;;;;;5064353;28;20694;-79
2021/08/18 10:34:07;;;;;;;18.50;15.07;;;20.40;99.90;;;;;;5066985;28;20029;-80
2021/08/18 10:36:41;;;;;;;16.17;14.13;;;20.50;99.90;;;;;;5024275;28;20146;-79
2021/08/18 10:39:19;;;;;;;17.02;15.23;;;20.50;99.90;;;;;;5068670;28;20103;-79
2021/08/18 10:42:03;;;;;;;15.68;13.40;;;20.60;99.90;;;;;;5069485;28;20033;-79
2021/08/18 10:44:53;;;;;;;14.40;12.88;;;20.70;99.90;;;;;;5070365;28;20020;-79
2021/08/18 10:47:26;;;;;;;14.27;12.77;;;20.80;99.90;;;;;;5066165;28;20410;-79
2021/08/18 10:50:17;;;;;;;19.88;14.68;;;20.80;99.90;;;;;;5063549;28;20047;-79
2021/08/18 10:52:43;;;;;;;16.92;14.60;;;20.80;99.90;;;;;;5061766;28;20432;-79
2021/08/18 10:55:27;;;;;;;15.55;13.68;;;20.80;99.90;;;;;;5071993;28;20492;-79
2021/08/18 10:57:58;;;;;;;12.68;11.23;;;20.80;99.90;;;;;;5066784;28;20111;-79
2021/08/18 11:00:37;;;;;;;14.13;11.32;;;20.80;99.90;;;;;;5071718;28;20078;-79
2021/08/18 11:03:17;;;;;;;13.15;11.93;;;20.70;99.90;;;;;;5067655;28;20470;-79
2021/08/18 11:05:50;;;;;;;17.35;11.77;;;20.70;99.90;;;;;;5068920;28;20028;-79
2021/08/18 11:08:28;;;;;;;14.02;11.70;;;20.70;99.90;;;;;;5065914;28;20054;-79
2021/08/18 11:10:54;;;;;;;13.30;11.48;;;20.70;99.90;;;;;;5071489;28;20024;-79
2021/08/18 11:13:38;;;;;;;13.45;12.00;;;20.60;99.90;;;;;;5065430;28;20082;-79
2021/08/18 11:16:09;;;;;;;15.00;12.93;;;20.60;99.90;;;;;;5072532;28;20476;-79
2021/08/18 11:18:36;;;;;;;13.32;11.95;;;20.60;99.90;;;;;;5068955;28;20025;-77
2021/08/18 11:21:03;;;;;;;17.00;12.65;;;20.60;99.90;;;;;;5069103;28;20036;-79
2021/08/18 11:23:30;;;;;;;13.27;11.90;;;20.70;99.90;;;;;;5069097;28;20024;-78
2021/08/18 11:25:59;;;;;;;18.65;12.55;;;20.70;99.90;;;;;;5073104;28;20024;-78
2021/08/18 11:28:27;;;;;;;16.50;12.93;;;20.90;99.90;;;;;;5070730;28;20438;-78
2021/08/18 11:31:02;;;;;;;14.52;12.52;;;20.90;99.90;;;;;;5071967;28;20381;-79
2021/08/18 11:33:28;;;;;;;14.75;12.95;;;21.00;99.90;;;;;;5071155;28;20056;-79
2021/08/18 11:35:55;;;;;;;18.65;14.85;;;21.10;99.90;;;;;;5052920;28;20059;-79
2021/08/18 11:38:22;;;;;;;16.13;12.75;;;21.20;99.90;;;;;;5067017;28;20071;-78
2021/08/18 11:40:50;;;;;;;16.73;13.45;;;21.30;99.90;;;;;;5062140;28;20051;-79
2021/08/18 11:43:16;;;;;;;15.07;12.68;;;21.30;99.90;;;;;;5070029;28;20039;-79
2021/08/18 11:45:49;;;;;;;16.10;13.13;;;21.30;99.90;;;;;;5072009;28;20024;-79
2021/08/18 11:48:14;;;;;;;14.15;12.75;;;21.20;99.90;;;;;;5071741;28;20035;-78
2021/08/18 11:50:51;;;;;;;14.55;11.98;;;21.20;99.90;;;;;;5070582;28;20033;-78
2021/08/18 11:53:18;;;;;;;19.63;13.38;;;21.30;99.90;;;;;;5052288;28;20028;-78
2021/08/18 11:55:44;;;;;;;13.77;11.15;;;21.30;99.90;;;;;;5069752;28;20043;-78
2021/08/18 11:58:10;;;;;;;11.65;10.30;;;21.30;99.90;;;;;;5066457;28;20075;-78
2021/08/18 12:00:38;;;;;;;14.00;10.52;;;21.40;99.90;;;;;;5071540;28;20020;-79
2021/08/18 12:03:04;;;;;;;13.90;10.07;;;21.40;99.90;;;;;;5070937;28;20064;-78
2021/08/18 12:05:37;;;;;;;12.18;10.80;;;21.40;99.90;;;;;;5069897;28;20107;-79
2021/08/18 12:08:17;;;;;;;12.00;10.95;;;21.40;99.90;;;;;;5049680;28;20187;-78
2021/08/18 12:10:46;;;;;;;12.63;11.32;;;21.40;99.90;;;;;;5063268;28;20021;-76
2021/08/18 12:13:17;;;;;;;14.15;10.98;;;21.50;99.90;;;;;;5067721;28;20238;-77
2021/08/18 12:15:46;;;;;;;13.55;11.38;;;21.60;99.90;;;;;;5064520;28;20013;-78
2021/08/18 12:18:30;;;;;;;13.93;11.25;;;21.60;99.90;;;;;;5066687;28;20496;-78
2021/08/18 12:21:24;;;;;;;10.82;9.73;;;21.70;99.90;;;;;;5061948;28;20477;-78
2021/08/18 12:23:52;;;;;;;12.82;11.07;;;21.70;99.90;;;;;;5062194;28;20120;-77
2021/08/18 12:26:34;;;;;;;11.15;10.07;;;21.80;99.90;;;;;;5065386;28;20111;-76
2021/08/18 12:29:01;;;;;;;;;;;21.70;99.90;;;;;;5066805;28;20374;-76
2021/08/18 12:31:54;;;;;;;12.05;10.00;;;21.70;99.90;;;;;;5070537;28;19908;-76